Kaleen Mc Allister — WDB3847 — position and weather

sailwx.info

Track history (hours):
 
Tides and Currents Weather Stations Pressure Air Temp Water Temp Dewpoint Dewpoint Depression Visibility Wind Speed Wind Dir Waves Ship Positions

Kaleen Mc Allister

Owner: MC ALLISTER TOWING & TRANSPORTATION INC, NEW YORK, NY. More information available from US FCC via Universal Licensing System and Coast Guard Vessel Documentation Center.

Last reported at 2015-May-30 11:32 UTC. Time now 2015-May-30 12:35 UTC.
Position N 39°16' W 076°35'.

Length 20 m; draft 4 m.

Type: Towing. MMSI: 366891960.

Date/timePositionNaut miles runAvg speedWind from/ knotsBaromVisibWave heightAir tempDewpointWater temp
2015-May-30 11:32N 39°16' W 076°35'0 0.0
2015-May-30 10:30N 39°16' W 076°35'0 0.0
2015-May-30 09:32N 39°16' W 076°35'0 0.0
2015-May-30 08:33N 39°16' W 076°35'0 0.0
2015-May-30 07:33N 39°16' W 076°35'0 0.0
2015-May-30 06:33N 39°16' W 076°35'0 0.0
2015-May-30 05:34N 39°16' W 076°35'0 0.0
2015-May-30 04:28N 39°16' W 076°35'0 0.0
2015-May-30 03:33N 39°16' W 076°35'0 0.0
2015-May-30 02:32N 39°16' W 076°35'0 0.0
2015-May-30 01:33N 39°16' W 076°35'0 0.0
2015-May-30 00:30N 39°16' W 076°35'0 0.0
2015-May-29 23:33N 39°16' W 076°35'0 0.0
2015-May-29 22:31N 39°16' W 076°35'0 0.0
2015-May-29 21:29N 39°16' W 076°35'0 0.0
2015-May-29 20:17N 39°16' W 076°35'0 0.0
2015-May-29 19:28N 39°16' W 076°35'0 0.0
2015-May-29 18:25N 39°16' W 076°35'0 0.0
2015-May-29 17:32N 39°16' W 076°35'0 0.0
2015-May-29 16:33N 39°16' W 076°35'0 0.0
2015-May-29 15:32N 39°16' W 076°35'0 0.0
2015-May-29 14:33N 39°16' W 076°35'0 0.0
2015-May-29 13:33N 39°16' W 076°35'0 0.0
2015-May-29 12:33N 39°16' W 076°35'0 0.0
2015-May-29 11:33N 39°16' W 076°35'0 0.0
2015-May-29 10:32N 39°16' W 076°35'1 1.0
2015-May-29 09:26N 39°15' W 076°34'0 0.3
2015-May-29 08:30N 39°15' W 076°34'1 1.3
2015-May-29 07:32N 39°16' W 076°35'0 0.0
2015-May-29 06:33N 39°16' W 076°35'0 0.0
2015-May-29 05:33N 39°16' W 076°35'0 0.0
2015-May-29 04:33N 39°16' W 076°35'0 0.0
2015-May-29 03:31N 39°16' W 076°35'0 0.0
2015-May-29 02:21N 39°16' W 076°35'1 1.3
2015-May-29 01:33N 39°15' W 076°35'2 1.6
2015-May-29 00:32N 39°15' W 076°33'2 2.0
2015-May-28 23:33N 39°16' W 076°35'0 0.0
2015-May-28 22:33N 39°16' W 076°35'0 0.0
2015-May-28 21:32N 39°16' W 076°35'0 0.2
2015-May-28 20:32N 39°16' W 076°35'0 0.2
2015-May-28 19:33N 39°16' W 076°35'0 0.0
2015-May-28 18:31N 39°16' W 076°35'0 0.0
2015-May-28 17:33N 39°16' W 076°35'0 0.2
2015-May-28 16:23N 39°16' W 076°35'0 0.2
2015-May-28 15:33N 39°16' W 076°35'2 1.5
2015-May-28 14:14N 39°17' W 076°37'2 2.5
2015-May-28 13:32N 39°16' W 076°35'0 0.0
2015-May-28 12:23N 39°16' W 076°35'0 0.0
2015-May-28 11:33N 39°16' W 076°35'0 0.0
2015-May-28 10:33N 39°16' W 076°35'0 0.0
2015-May-28 09:32N 39°16' W 076°35'0 0.0
2015-May-28 08:32N 39°16' W 076°35'0 0.0
2015-May-28 07:18N 39°16' W 076°35'0 0.0
2015-May-28 06:33N 39°16' W 076°35'0 0.0
2015-May-28 05:33N 39°16' W 076°35'0 0.0
2015-May-28 04:32N 39°16' W 076°35'0 0.0
2015-May-28 03:31N 39°16' W 076°35'0 0.0
2015-May-28 02:33N 39°16' W 076°35'0 0.0
2015-May-28 01:30N 39°16' W 076°35'0 0.0
2015-May-28 00:26N 39°16' W 076°35'0 0.0
2015-May-27 23:30N 39°16' W 076°35'0 0.2
2015-May-27 22:33N 39°16' W 076°35'1 1.1
2015-May-27 21:33N 39°15' W 076°35'1 1.2
2015-May-27 20:33N 39°16' W 076°35'0 0.0
2015-May-27 19:33N 39°16' W 076°35'0 0.0
2015-May-27 18:32N 39°16' W 076°35'0 0.0
2015-May-27 17:15N 39°16' W 076°35'0 0.0
2015-May-27 16:33N 39°16' W 076°35'4 1.8
2015-May-27 14:33N 39°13' W 076°32'4 3.6
2015-May-27 13:33N 39°16' W 076°35'0 0.0
2015-May-27 12:34N 39°16' W 076°35'0 0.0
2015-May-27 11:33N 39°16' W 076°35'0 0.0
2015-May-27 10:32N 39°16' W 076°35'0 0.0
2015-May-27 09:32N 39°16' W 076°35'0 0.0
2015-May-27 08:33N 39°16' W 076°35'0 0.0
2015-May-27 07:33N 39°16' W 076°35'0 0.0
2015-May-27 06:32N 39°16' W 076°35'0 0.0
2015-May-27 05:32N 39°16' W 076°35'1 0.5
2015-May-27 04:28N 39°16' W 076°34'1 0.8
2015-May-27 03:12N 39°15' W 076°33'2 2.4
2015-May-27 02:33N 39°16' W 076°35'0 0.0
2015-May-27 01:33N 39°16' W 076°35'0 0.0
2015-May-27 00:33N 39°16' W 076°35'0 0.0
2015-May-26 23:33N 39°16' W 076°35'0 0.0
2015-May-26 22:33N 39°16' W 076°35'0 0.0
2015-May-26 21:32N 39°16' W 076°35'0 0.0
2015-May-26 20:33N 39°16' W 076°35'0 0.0
2015-May-26 19:33N 39°16' W 076°35'0 0.5
2015-May-26 18:32N 39°16' W 076°35'0 0.5
2015-May-26 17:32N 39°16' W 076°35'0 0.0
2015-May-26 16:32N 39°16' W 076°35'0 0.0
2015-May-26 15:27N 39°16' W 076°35'0 0.0
2015-May-26 14:33N 39°16' W 076°35'0 0.0
2015-May-26 13:32N 39°16' W 076°35'0 0.0
2015-May-26 12:33N 39°16' W 076°35'0 0.0
2015-May-26 11:33N 39°16' W 076°35'0 0.0
2015-May-26 10:33N 39°16' W 076°35'0 0.1
2015-May-26 07:33N 39°16' W 076°35'0 0.3
2015-May-26 06:33N 39°16' W 076°35'0 0.0
2015-May-26 05:30N 39°16' W 076°35'0 0.0
2015-May-26 04:31N 39°16' W 076°35'0 0.0
2015-May-26 03:33N 39°16' W 076°35'0 0.0
2015-May-26 02:33N 39°16' W 076°35'0 0.0
2015-May-26 01:24N 39°16' W 076°35'0 0.0
2015-May-26 00:32N 39°16' W 076°35'0 0.0
2015-May-25 23:27N 39°16' W 076°35'0 0.0
2015-May-25 22:26N 39°16' W 076°35'0 0.0
2015-May-25 21:20N 39°16' W 076°35'0 0.2
2015-May-25 20:31N 39°16' W 076°35'3 3.4
2015-May-25 19:32N 39°13' W 076°32'2 2.3
2015-May-25 18:30N 39°15' W 076°34'1 0.3
2015-May-25 16:12N 39°15' W 076°33'2 2.0
2015-May-25 15:22N 39°16' W 076°35'0 0.0
2015-May-25 14:32N 39°16' W 076°35'0 0.0
2015-May-25 13:32N 39°16' W 076°35'0 0.0
2015-May-25 12:33N 39°16' W 076°35'0 0.0
2015-May-25 11:33N 39°16' W 076°35'0 0.0
2015-May-25 10:34N 39°16' W 076°35'0 0.0
2015-May-25 09:33N 39°16' W 076°35'0 0.0
2015-May-25 08:33N 39°16' W 076°35'0 0.0
2015-May-25 07:33N 39°16' W 076°35'0 0.0
2015-May-25 06:33N 39°16' W 076°35'0 0.0
2015-May-25 05:33N 39°16' W 076°35'0 0.0
2015-May-25 04:34N 39°16' W 076°35'0 0.0
2015-May-25 03:33N 39°16' W 076°35'0 0.0
2015-May-25 02:33N 39°16' W 076°35'3 2.8
2015-May-25 01:31N 39°14' W 076°32'3 3.0
2015-May-25 00:33N 39°16' W 076°35'0 0.0
2015-May-24 23:31N 39°16' W 076°35'0 0.0
2015-May-24 22:30N 39°16' W 076°35'0 0.0
2015-May-24 21:34N 39°16' W 076°35'0 0.0
2015-May-24 20:31N 39°16' W 076°35'0 0.0
2015-May-24 19:34N 39°16' W 076°35'0 0.0
2015-May-24 18:32N 39°16' W 076°35'0 0.0
2015-May-24 17:33N 39°16' W 076°35'0 0.0
2015-May-24 16:22N 39°16' W 076°35'0 0.0
2015-May-24 15:31N 39°16' W 076°35'0 0.0
2015-May-24 14:33N 39°16' W 076°35'0 0.0
2015-May-24 13:26N 39°16' W 076°35'0 0.0
2015-May-24 12:31N 39°16' W 076°35'0 0.0
2015-May-24 11:27N 39°16' W 076°35'0 0.0
2015-May-24 10:32N 39°16' W 076°35'0 0.0
2015-May-24 09:32N 39°16' W 076°35'0 0.0
2015-May-24 08:33N 39°16' W 076°35'0 0.0
2015-May-24 07:33N 39°16' W 076°35'0 0.0
2015-May-24 06:34N 39°16' W 076°35'0 0.0
2015-May-24 05:33N 39°16' W 076°35'0 0.0
2015-May-24 04:33N 39°16' W 076°35'0 0.0
2015-May-24 03:32N 39°16' W 076°35'0 0.0
2015-May-24 02:30N 39°16' W 076°35'0 0.0
2015-May-24 01:30N 39°16' W 076°35'0 0.0
2015-May-24 00:19N 39°16' W 076°35'0 0.0
2015-May-23 23:32N 39°16' W 076°35'0 0.0
2015-May-23 22:30N 39°16' W 076°35'0 0.0
2015-May-23 21:24N 39°16' W 076°35'0 0.0
2015-May-23 20:26N 39°16' W 076°35'0 0.0
2015-May-23 19:31N 39°16' W 076°35'0 0.0
2015-May-23 18:33N 39°16' W 076°35'2 1.4
2015-May-23 17:25N 39°15' W 076°33'2 1.6
2015-May-23 16:28N 39°16' W 076°35'0 0.0
2015-May-23 15:31N 39°16' W 076°35'0 0.0
2015-May-23 14:32N 39°16' W 076°35'0 0.0
2015-May-23 13:06N 39°16' W 076°35'0 0.0
2015-May-23 11:31N 39°16' W 076°35'0 0.0
2015-May-23 10:22N 39°16' W 076°35'0 0.0
2015-May-23 09:33N 39°16' W 076°35'0 0.0
2015-May-23 08:29N 39°16' W 076°35'0 0.0
2015-May-23 07:25N 39°16' W 076°35'0 0.0
2015-May-23 06:31N 39°16' W 076°35'0 0.0
2015-May-23 05:32N 39°16' W 076°35'0 0.0
2015-May-23 04:32N 39°16' W 076°35'0 0.0
2015-May-23 03:21N 39°16' W 076°35'0 0.0
2015-May-23 02:31N 39°16' W 076°35'0 0.0
2015-May-23 01:17N 39°16' W 076°35'0 0.0
2015-May-22 23:21N 39°16' W 076°35'3 2.9
2015-May-22 22:23N 39°14' W 076°32'3 3.0
2015-May-22 21:27N 39°16' W 076°35'0 0.0
2015-May-22 20:30N 39°16' W 076°35'0 0.0
2015-May-22 19:33N 39°16' W 076°35'0 0.0
2015-May-22 18:29N 39°16' W 076°35'0 0.0
2015-May-22 17:23N 39°16' W 076°35'0 0.0
2015-May-22 16:33N 39°16' W 076°35'0 0.0
2015-May-22 15:33N 39°16' W 076°35'0 0.5
2015-May-22 14:31N 39°17' W 076°35'0 0.5
2015-May-22 13:31N 39°16' W 076°35'0 0.0
2015-May-22 12:31N 39°16' W 076°35'0 0.0
2015-May-22 11:12N 39°16' W 076°35'0 0.0
2015-May-22 10:33N 39°16' W 076°35'0 0.0
2015-May-22 09:32N 39°16' W 076°35'0 0.0
2015-May-22 08:33N 39°16' W 076°35'0 0.0
2015-May-22 07:05N 39°16' W 076°35'0 0.6
2015-May-22 06:18N 39°16' W 076°35'2 1.4
2015-May-22 05:12N 39°15' W 076°35'0 0.0
2015-May-22 04:24N 39°15' W 076°35'0 0.0
2015-May-22 03:31N 39°15' W 076°35'1 0.6
2015-May-22 01:31N 39°16' W 076°35'0 0.0
2015-May-22 00:24N 39°16' W 076°35'0 0.0
2015-May-21 23:33N 39°16' W 076°35'0 0.0
2015-May-21 22:31N 39°16' W 076°35'0 0.0
2015-May-21 21:33N 39°16' W 076°35'0 0.0
2015-May-21 20:33N 39°16' W 076°35'0 0.0
2015-May-21 19:31N 39°16' W 076°35'0 0.0
2015-May-21 18:32N 39°16' W 076°35'0 0.0
2015-May-21 17:33N 39°16' W 076°35'0 0.0
2015-May-21 16:33N 39°16' W 076°35'2 1.8
2015-May-21 15:33N 39°15' W 076°33'1 0.8
2015-May-21 14:33N 39°15' W 076°34'2 1.7
2015-May-21 13:34N 39°16' W 076°35'0 0.0
2015-May-21 12:20N 39°16' W 076°35'1 1.4
2015-May-21 11:32N 39°15' W 076°34'0 0.2
2015-May-21 10:30N 39°15' W 076°34'2 1.4
2015-May-21 09:24N 39°14' W 076°32'3 3.0
2015-May-21 08:32N 39°16' W 076°35'0 0.1
2015-May-21 07:32N 39°16' W 076°35'0 0.0
2015-May-21 06:32N 39°16' W 076°35'0 0.0
2015-May-21 05:32N 39°16' W 076°35'0 0.0
2015-May-21 04:29N 39°16' W 076°35'0 0.0
2015-May-21 03:30N 39°16' W 076°35'0 0.5
2015-May-21 02:27N 39°16' W 076°35'0 0.2
2015-May-21 00:06N 39°16' W 076°35'0 0.0
2015-May-20 23:30N 39°16' W 076°35'0 0.0
2015-May-20 22:23N 39°16' W 076°35'0 0.0
2015-May-20 21:32N 39°16' W 076°35'0 0.0
2015-May-20 20:32N 39°16' W 076°35'0 0.1
2015-May-20 19:33N 39°16' W 076°35'0 0.1
2015-May-20 18:10N 39°16' W 076°35'0 0.1
2015-May-20 17:30N 39°16' W 076°35'0 0.0
2015-May-20 16:30N 39°16' W 076°35'0 0.0
2015-May-20 15:33N 39°16' W 076°35'0 0.0
2015-May-20 14:33N 39°16' W 076°35'0 0.0
2015-May-20 13:33N 39°16' W 076°35'0 0.0
2015-May-20 12:33N 39°16' W 076°35'2 2.3
2015-May-20 11:33N 39°15' W 076°33'  
Track history (hours):
 
Tides and Currents Weather Stations Pressure Air Temp Water Temp Dewpoint Dewpoint Depression Visibility Wind Speed Wind Dir Waves Ship Positions

Kaleen Mc Allister

Owner: MC ALLISTER TOWING & TRANSPORTATION INC, NEW YORK, NY. More information available from US FCC via Universal Licensing System and Coast Guard Vessel Documentation Center.

Last reported at 2015-May-30 11:32 UTC. Time now 2015-May-30 12:35 UTC.
Position N 39°16' W 076°35'.

Length 20 m; draft 4 m.

Type: Towing. MMSI: 366891960.

Date/timePositionNaut miles runAvg speedWind from/ knotsBaromVisibWave heightAir tempDewpointWater temp
2015-May-30 11:32N 39°16' W 076°35'0 0.0
2015-May-30 10:30N 39°16' W 076°35'0 0.0
2015-May-30 09:32N 39°16' W 076°35'0 0.0
2015-May-30 08:33N 39°16' W 076°35'0 0.0
2015-May-30 07:33N 39°16' W 076°35'0 0.0
2015-May-30 06:33N 39°16' W 076°35'0 0.0
2015-May-30 05:34N 39°16' W 076°35'0 0.0
2015-May-30 04:28N 39°16' W 076°35'0 0.0
2015-May-30 03:33N 39°16' W 076°35'0 0.0
2015-May-30 02:32N 39°16' W 076°35'0 0.0
2015-May-30 01:33N 39°16' W 076°35'0 0.0
2015-May-30 00:30N 39°16' W 076°35'0 0.0
2015-May-29 23:33N 39°16' W 076°35'0 0.0
2015-May-29 22:31N 39°16' W 076°35'0 0.0
2015-May-29 21:29N 39°16' W 076°35'0 0.0
2015-May-29 20:17N 39°16' W 076°35'0 0.0
2015-May-29 19:28N 39°16' W 076°35'0 0.0
2015-May-29 18:25N 39°16' W 076°35'0 0.0
2015-May-29 17:32N 39°16' W 076°35'0 0.0
2015-May-29 16:33N 39°16' W 076°35'0 0.0
2015-May-29 15:32N 39°16' W 076°35'0 0.0
2015-May-29 14:33N 39°16' W 076°35'0 0.0
2015-May-29 13:33N 39°16' W 076°35'0 0.0
2015-May-29 12:33N 39°16' W 076°35'0 0.0
2015-May-29 11:33N 39°16' W 076°35'0 0.0
2015-May-29 10:32N 39°16' W 076°35'1 1.0
2015-May-29 09:26N 39°15' W 076°34'0 0.3
2015-May-29 08:30N 39°15' W 076°34'1 1.3
2015-May-29 07:32N 39°16' W 076°35'0 0.0
2015-May-29 06:33N 39°16' W 076°35'0 0.0
2015-May-29 05:33N 39°16' W 076°35'0 0.0
2015-May-29 04:33N 39°16' W 076°35'0 0.0
2015-May-29 03:31N 39°16' W 076°35'0 0.0
2015-May-29 02:21N 39°16' W 076°35'1 1.3
2015-May-29 01:33N 39°15' W 076°35'2 1.6
2015-May-29 00:32N 39°15' W 076°33'2 2.0
2015-May-28 23:33N 39°16' W 076°35'0 0.0
2015-May-28 22:33N 39°16' W 076°35'0 0.0
2015-May-28 21:32N 39°16' W 076°35'0 0.2
2015-May-28 20:32N 39°16' W 076°35'0 0.2
2015-May-28 19:33N 39°16' W 076°35'0 0.0
2015-May-28 18:31N 39°16' W 076°35'0 0.0
2015-May-28 17:33N 39°16' W 076°35'0 0.2
2015-May-28 16:23N 39°16' W 076°35'0 0.2
2015-May-28 15:33N 39°16' W 076°35'2 1.5
2015-May-28 14:14N 39°17' W 076°37'2 2.5
2015-May-28 13:32N 39°16' W 076°35'0 0.0
2015-May-28 12:23N 39°16' W 076°35'0 0.0
2015-May-28 11:33N 39°16' W 076°35'0 0.0
2015-May-28 10:33N 39°16' W 076°35'0 0.0
2015-May-28 09:32N 39°16' W 076°35'0 0.0
2015-May-28 08:32N 39°16' W 076°35'0 0.0
2015-May-28 07:18N 39°16' W 076°35'0 0.0
2015-May-28 06:33N 39°16' W 076°35'0 0.0
2015-May-28 05:33N 39°16' W 076°35'0 0.0
2015-May-28 04:32N 39°16' W 076°35'0 0.0
2015-May-28 03:31N 39°16' W 076°35'0 0.0
2015-May-28 02:33N 39°16' W 076°35'0 0.0
2015-May-28 01:30N 39°16' W 076°35'0 0.0
2015-May-28 00:26N 39°16' W 076°35'0 0.0
2015-May-27 23:30N 39°16' W 076°35'0 0.2
2015-May-27 22:33N 39°16' W 076°35'1 1.1
2015-May-27 21:33N 39°15' W 076°35'1 1.2
2015-May-27 20:33N 39°16' W 076°35'0 0.0
2015-May-27 19:33N 39°16' W 076°35'0 0.0
2015-May-27 18:32N 39°16' W 076°35'0 0.0
2015-May-27 17:15N 39°16' W 076°35'0 0.0
2015-May-27 16:33N 39°16' W 076°35'4 1.8
2015-May-27 14:33N 39°13' W 076°32'4 3.6
2015-May-27 13:33N 39°16' W 076°35'0 0.0
2015-May-27 12:34N 39°16' W 076°35'0 0.0
2015-May-27 11:33N 39°16' W 076°35'0 0.0
2015-May-27 10:32N 39°16' W 076°35'0 0.0
2015-May-27 09:32N 39°16' W 076°35'0 0.0
2015-May-27 08:33N 39°16' W 076°35'0 0.0
2015-May-27 07:33N 39°16' W 076°35'0 0.0
2015-May-27 06:32N 39°16' W 076°35'0 0.0
2015-May-27 05:32N 39°16' W 076°35'1 0.5
2015-May-27 04:28N 39°16' W 076°34'1 0.8
2015-May-27 03:12N 39°15' W 076°33'2 2.4
2015-May-27 02:33N 39°16' W 076°35'0 0.0
2015-May-27 01:33N 39°16' W 076°35'0 0.0
2015-May-27 00:33N 39°16' W 076°35'0 0.0
2015-May-26 23:33N 39°16' W 076°35'0 0.0
2015-May-26 22:33N 39°16' W 076°35'0 0.0
2015-May-26 21:32N 39°16' W 076°35'0 0.0
2015-May-26 20:33N 39°16' W 076°35'0 0.0
2015-May-26 19:33N 39°16' W 076°35'0 0.5
2015-May-26 18:32N 39°16' W 076°35'0 0.5
2015-May-26 17:32N 39°16' W 076°35'0 0.0
2015-May-26 16:32N 39°16' W 076°35'0 0.0
2015-May-26 15:27N 39°16' W 076°35'0 0.0
2015-May-26 14:33N 39°16' W 076°35'0 0.0
2015-May-26 13:32N 39°16' W 076°35'0 0.0
2015-May-26 12:33N 39°16' W 076°35'0 0.0
2015-May-26 11:33N 39°16' W 076°35'0 0.0
2015-May-26 10:33N 39°16' W 076°35'0 0.1
2015-May-26 07:33N 39°16' W 076°35'0 0.3
2015-May-26 06:33N 39°16' W 076°35'0 0.0
2015-May-26 05:30N 39°16' W 076°35'0 0.0
2015-May-26 04:31N 39°16' W 076°35'0 0.0
2015-May-26 03:33N 39°16' W 076°35'0 0.0
2015-May-26 02:33N 39°16' W 076°35'0 0.0
2015-May-26 01:24N 39°16' W 076°35'0 0.0
2015-May-26 00:32N 39°16' W 076°35'0 0.0
2015-May-25 23:27N 39°16' W 076°35'0 0.0
2015-May-25 22:26N 39°16' W 076°35'0 0.0
2015-May-25 21:20N 39°16' W 076°35'0 0.2
2015-May-25 20:31N 39°16' W 076°35'3 3.4
2015-May-25 19:32N 39°13' W 076°32'2 2.3
2015-May-25 18:30N 39°15' W 076°34'1 0.3
2015-May-25 16:12N 39°15' W 076°33'2 2.0
2015-May-25 15:22N 39°16' W 076°35'0 0.0
2015-May-25 14:32N 39°16' W 076°35'0 0.0
2015-May-25 13:32N 39°16' W 076°35'0 0.0
2015-May-25 12:33N 39°16' W 076°35'0 0.0
2015-May-25 11:33N 39°16' W 076°35'0 0.0
2015-May-25 10:34N 39°16' W 076°35'0 0.0
2015-May-25 09:33N 39°16' W 076°35'0 0.0
2015-May-25 08:33N 39°16' W 076°35'0 0.0
2015-May-25 07:33N 39°16' W 076°35'0 0.0
2015-May-25 06:33N 39°16' W 076°35'0 0.0
2015-May-25 05:33N 39°16' W 076°35'0 0.0
2015-May-25 04:34N 39°16' W 076°35'0 0.0
2015-May-25 03:33N 39°16' W 076°35'0 0.0
2015-May-25 02:33N 39°16' W 076°35'3 2.8
2015-May-25 01:31N 39°14' W 076°32'3 3.0
2015-May-25 00:33N 39°16' W 076°35'0 0.0
2015-May-24 23:31N 39°16' W 076°35'0 0.0
2015-May-24 22:30N 39°16' W 076°35'0 0.0
2015-May-24 21:34N 39°16' W 076°35'0 0.0
2015-May-24 20:31N 39°16' W 076°35'0 0.0
2015-May-24 19:34N 39°16' W 076°35'0 0.0
2015-May-24 18:32N 39°16' W 076°35'0 0.0
2015-May-24 17:33N 39°16' W 076°35'0 0.0
2015-May-24 16:22N 39°16' W 076°35'0 0.0
2015-May-24 15:31N 39°16' W 076°35'0 0.0
2015-May-24 14:33N 39°16' W 076°35'0 0.0
2015-May-24 13:26N 39°16' W 076°35'0 0.0
2015-May-24 12:31N 39°16' W 076°35'0 0.0
2015-May-24 11:27N 39°16' W 076°35'0 0.0
2015-May-24 10:32N 39°16' W 076°35'0 0.0
2015-May-24 09:32N 39°16' W 076°35'0 0.0
2015-May-24 08:33N 39°16' W 076°35'0 0.0
2015-May-24 07:33N 39°16' W 076°35'0 0.0
2015-May-24 06:34N 39°16' W 076°35'0 0.0
2015-May-24 05:33N 39°16' W 076°35'0 0.0
2015-May-24 04:33N 39°16' W 076°35'0 0.0
2015-May-24 03:32N 39°16' W 076°35'0 0.0
2015-May-24 02:30N 39°16' W 076°35'0 0.0
2015-May-24 01:30N 39°16' W 076°35'0 0.0
2015-May-24 00:19N 39°16' W 076°35'0 0.0
2015-May-23 23:32N 39°16' W 076°35'0 0.0
2015-May-23 22:30N 39°16' W 076°35'0 0.0
2015-May-23 21:24N 39°16' W 076°35'0 0.0
2015-May-23 20:26N 39°16' W 076°35'0 0.0
2015-May-23 19:31N 39°16' W 076°35'0 0.0
2015-May-23 18:33N 39°16' W 076°35'2 1.4
2015-May-23 17:25N 39°15' W 076°33'2 1.6
2015-May-23 16:28N 39°16' W 076°35'0 0.0
2015-May-23 15:31N 39°16' W 076°35'0 0.0
2015-May-23 14:32N 39°16' W 076°35'0 0.0
2015-May-23 13:06N 39°16' W 076°35'0 0.0
2015-May-23 11:31N 39°16' W 076°35'0 0.0
2015-May-23 10:22N 39°16' W 076°35'0 0.0
2015-May-23 09:33N 39°16' W 076°35'0 0.0
2015-May-23 08:29N 39°16' W 076°35'0 0.0
2015-May-23 07:25N 39°16' W 076°35'0 0.0
2015-May-23 06:31N 39°16' W 076°35'0 0.0
2015-May-23 05:32N 39°16' W 076°35'0 0.0
2015-May-23 04:32N 39°16' W 076°35'0 0.0
2015-May-23 03:21N 39°16' W 076°35'0 0.0
2015-May-23 02:31N 39°16' W 076°35'0 0.0
2015-May-23 01:17N 39°16' W 076°35'0 0.0
2015-May-22 23:21N 39°16' W 076°35'3 2.9
2015-May-22 22:23N 39°14' W 076°32'3 3.0
2015-May-22 21:27N 39°16' W 076°35'0 0.0
2015-May-22 20:30N 39°16' W 076°35'0 0.0
2015-May-22 19:33N 39°16' W 076°35'0 0.0
2015-May-22 18:29N 39°16' W 076°35'0 0.0
2015-May-22 17:23N 39°16' W 076°35'0 0.0
2015-May-22 16:33N 39°16' W 076°35'0 0.0
2015-May-22 15:33N 39°16' W 076°35'0 0.5
2015-May-22 14:31N 39°17' W 076°35'0 0.5
2015-May-22 13:31N 39°16' W 076°35'0 0.0
2015-May-22 12:31N 39°16' W 076°35'0 0.0
2015-May-22 11:12N 39°16' W 076°35'0 0.0
2015-May-22 10:33N 39°16' W 076°35'0 0.0
2015-May-22 09:32N 39°16' W 076°35'0 0.0
2015-May-22 08:33N 39°16' W 076°35'0 0.0
2015-May-22 07:05N 39°16' W 076°35'0 0.6
2015-May-22 06:18N 39°16' W 076°35'2 1.4
2015-May-22 05:12N 39°15' W 076°35'0 0.0
2015-May-22 04:24N 39°15' W 076°35'0 0.0
2015-May-22 03:31N 39°15' W 076°35'1 0.6
2015-May-22 01:31N 39°16' W 076°35'0 0.0
2015-May-22 00:24N 39°16' W 076°35'0 0.0
2015-May-21 23:33N 39°16' W 076°35'0 0.0
2015-May-21 22:31N 39°16' W 076°35'0 0.0
2015-May-21 21:33N 39°16' W 076°35'0 0.0
2015-May-21 20:33N 39°16' W 076°35'0 0.0
2015-May-21 19:31N 39°16' W 076°35'0 0.0
2015-May-21 18:32N 39°16' W 076°35'0 0.0
2015-May-21 17:33N 39°16' W 076°35'0 0.0
2015-May-21 16:33N 39°16' W 076°35'2 1.8
2015-May-21 15:33N 39°15' W 076°33'1 0.8
2015-May-21 14:33N 39°15' W 076°34'2 1.7
2015-May-21 13:34N 39°16' W 076°35'0 0.0
2015-May-21 12:20N 39°16' W 076°35'1 1.4
2015-May-21 11:32N 39°15' W 076°34'0 0.2
2015-May-21 10:30N 39°15' W 076°34'2 1.4
2015-May-21 09:24N 39°14' W 076°32'3 3.0
2015-May-21 08:32N 39°16' W 076°35'0 0.1
2015-May-21 07:32N 39°16' W 076°35'0 0.0
2015-May-21 06:32N 39°16' W 076°35'0 0.0
2015-May-21 05:32N 39°16' W 076°35'0 0.0
2015-May-21 04:29N 39°16' W 076°35'0 0.0
2015-May-21 03:30N 39°16' W 076°35'0 0.5
2015-May-21 02:27N 39°16' W 076°35'0 0.2
2015-May-21 00:06N 39°16' W 076°35'0 0.0
2015-May-20 23:30N 39°16' W 076°35'0 0.0
2015-May-20 22:23N 39°16' W 076°35'0 0.0
2015-May-20 21:32N 39°16' W 076°35'0 0.0
2015-May-20 20:32N 39°16' W 076°35'0 0.1
2015-May-20 19:33N 39°16' W 076°35'0 0.1
2015-May-20 18:10N 39°16' W 076°35'0 0.1
2015-May-20 17:30N 39°16' W 076°35'0 0.0
2015-May-20 16:30N 39°16' W 076°35'0 0.0
2015-May-20 15:33N 39°16' W 076°35'0 0.0
2015-May-20 14:33N 39°16' W 076°35'0 0.0
2015-May-20 13:33N 39°16' W 076°35'0 0.0
2015-May-20 12:33N 39°16' W 076°35'2 2.3
2015-May-20 11:33N 39°15' W 076°33'  

Dump ship's entire track history